sensor_id;sensor_type;location;lat;lon;timestamp;P1;durP1;ratioP1;P2;durP2;ratioP2
1775;SDS011;885;42.626;23.200;2023-06-14T00:02:12;6.00;;;5.00;;
1775;SDS011;885;42.626;23.200;2023-06-14T00:04:39;6.90;;;4.10;;
1775;SDS011;885;42.626;23.200;2023-06-14T00:07:06;5.07;;;4.60;;
1775;SDS011;885;42.626;23.200;2023-06-14T00:09:35;6.77;;;5.00;;
1775;SDS011;885;42.626;23.200;2023-06-14T00:12:02;5.57;;;5.07;;
1775;SDS011;885;42.626;23.200;2023-06-14T00:14:28;7.30;;;5.20;;
1775;SDS011;885;42.626;23.200;2023-06-14T00:16:54;10.03;;;5.63;;
1775;SDS011;885;42.626;23.200;2023-06-14T00:19:23;6.63;;;5.17;;
1775;SDS011;885;42.626;23.200;2023-06-14T00:21:50;8.87;;;6.23;;
1775;SDS011;885;42.626;23.200;2023-06-14T00:24:17;7.17;;;5.90;;
1775;SDS011;885;42.626;23.200;2023-06-14T00:26:44;7.27;;;5.03;;
1775;SDS011;885;42.626;23.200;2023-06-14T00:29:11;7.80;;;6.10;;
1775;SDS011;885;42.626;23.200;2023-06-14T00:31:37;8.67;;;7.53;;
1775;SDS011;885;42.626;23.200;2023-06-14T00:34:04;6.33;;;4.80;;
1775;SDS011;885;42.626;23.200;2023-06-14T00:36:30;7.37;;;4.43;;
1775;SDS011;885;42.626;23.200;2023-06-14T00:38:57;7.57;;;5.60;;
1775;SDS011;885;42.626;23.200;2023-06-14T00:41:23;17.37;;;10.93;;
1775;SDS011;885;42.626;23.200;2023-06-14T00:43:51;17.60;;;10.47;;
1775;SDS011;885;42.626;23.200;2023-06-14T00:46:20;13.50;;;10.33;;
1775;SDS011;885;42.626;23.200;2023-06-14T00:48:47;9.67;;;7.00;;
1775;SDS011;885;42.626;23.200;2023-06-14T00:51:14;7.93;;;6.13;;
1775;SDS011;885;42.626;23.200;2023-06-14T00:53:40;7.40;;;6.30;;
1775;SDS011;885;42.626;23.200;2023-06-14T00:56:11;9.87;;;6.23;;
1775;SDS011;885;42.626;23.200;2023-06-14T00:58:38;9.77;;;6.63;;
1775;SDS011;885;42.626;23.200;2023-06-14T01:01:06;10.27;;;6.47;;
1775;SDS011;885;42.626;23.200;2023-06-14T01:03:33;10.67;;;6.17;;
1775;SDS011;885;42.626;23.200;2023-06-14T01:06:00;6.67;;;5.43;;
1775;SDS011;885;42.626;23.200;2023-06-14T01:08:31;7.17;;;5.67;;
1775;SDS011;885;42.626;23.200;2023-06-14T01:11:03;6.10;;;5.47;;
1775;SDS011;885;42.626;23.200;2023-06-14T01:13:32;6.97;;;6.27;;
1775;SDS011;885;42.626;23.200;2023-06-14T01:15:59;10.10;;;5.10;;
1775;SDS011;885;42.626;23.200;2023-06-14T01:18:27;7.73;;;5.80;;
1775;SDS011;885;42.626;23.200;2023-06-14T01:20:54;7.00;;;5.33;;
1775;SDS011;885;42.626;23.200;2023-06-14T01:23:23;7.57;;;5.67;;
1775;SDS011;885;42.626;23.200;2023-06-14T01:25:50;9.50;;;7.40;;
1775;SDS011;885;42.626;23.200;2023-06-14T01:28:18;7.47;;;5.50;;
1775;SDS011;885;42.626;23.200;2023-06-14T01:30:46;8.10;;;6.20;;
1775;SDS011;885;42.626;23.200;2023-06-14T01:33:13;9.97;;;5.50;;
1775;SDS011;885;42.626;23.200;2023-06-14T01:35:40;6.80;;;5.87;;
1775;SDS011;885;42.626;23.200;2023-06-14T01:38:08;9.13;;;5.97;;
1775;SDS011;885;42.626;23.200;2023-06-14T01:40:36;10.00;;;6.60;;
1775;SDS011;885;42.626;23.200;2023-06-14T01:43:04;10.27;;;6.93;;
1775;SDS011;885;42.626;23.200;2023-06-14T01:45:31;7.53;;;5.53;;
1775;SDS011;885;42.626;23.200;2023-06-14T01:47:59;10.43;;;7.27;;
1775;SDS011;885;42.626;23.200;2023-06-14T01:50:27;7.20;;;6.33;;
1775;SDS011;885;42.626;23.200;2023-06-14T01:52:54;6.20;;;5.60;;
1775;SDS011;885;42.626;23.200;2023-06-14T01:55:20;6.60;;;6.00;;
1775;SDS011;885;42.626;23.200;2023-06-14T01:57:48;9.30;;;6.87;;
1775;SDS011;885;42.626;23.200;2023-06-14T02:00:15;7.87;;;5.80;;
1775;SDS011;885;42.626;23.200;2023-06-14T02:02:43;6.73;;;5.77;;
1775;SDS011;885;42.626;23.200;2023-06-14T02:05:09;10.03;;;6.00;;
1775;SDS011;885;42.626;23.200;2023-06-14T02:07:36;8.83;;;5.73;;
1775;SDS011;885;42.626;23.200;2023-06-14T02:10:02;7.30;;;5.67;;
1775;SDS011;885;42.626;23.200;2023-06-14T02:12:29;9.27;;;5.80;;
1775;SDS011;885;42.626;23.200;2023-06-14T02:14:57;7.70;;;6.00;;
1775;SDS011;885;42.626;23.200;2023-06-14T02:17:24;7.10;;;5.77;;
1775;SDS011;885;42.626;23.200;2023-06-14T02:19:51;7.07;;;5.73;;
1775;SDS011;885;42.626;23.200;2023-06-14T02:22:17;8.10;;;5.47;;
1775;SDS011;885;42.626;23.200;2023-06-14T02:24:45;10.30;;;5.60;;
1775;SDS011;885;42.626;23.200;2023-06-14T02:27:12;6.80;;;5.73;;
1775;SDS011;885;42.626;23.200;2023-06-14T02:29:38;6.30;;;5.03;;
1775;SDS011;885;42.626;23.200;2023-06-14T02:32:07;7.47;;;6.10;;
1775;SDS011;885;42.626;23.200;2023-06-14T02:34:33;9.53;;;5.80;;
1775;SDS011;885;42.626;23.200;2023-06-14T02:37:00;6.43;;;5.47;;
1775;SDS011;885;42.626;23.200;2023-06-14T02:39:27;6.17;;;5.30;;
1775;SDS011;885;42.626;23.200;2023-06-14T02:41:54;7.03;;;5.60;;
1775;SDS011;885;42.626;23.200;2023-06-14T02:44:23;7.40;;;5.00;;
1775;SDS011;885;42.626;23.200;2023-06-14T02:46:50;6.90;;;5.70;;
1775;SDS011;885;42.626;23.200;2023-06-14T02:49:18;9.13;;;5.60;;
1775;SDS011;885;42.626;23.200;2023-06-14T02:51:45;7.37;;;5.90;;
1775;SDS011;885;42.626;23.200;2023-06-14T02:54:11;6.80;;;6.10;;
1775;SDS011;885;42.626;23.200;2023-06-14T02:56:37;7.30;;;6.37;;
1775;SDS011;885;42.626;23.200;2023-06-14T02:59:04;7.00;;;6.20;;
1775;SDS011;885;42.626;23.200;2023-06-14T03:01:30;10.60;;;6.50;;
1775;SDS011;885;42.626;23.200;2023-06-14T03:03:59;6.90;;;5.40;;
1775;SDS011;885;42.626;23.200;2023-06-14T03:06:27;7.70;;;5.43;;
1775;SDS011;885;42.626;23.200;2023-06-14T03:08:54;6.20;;;5.23;;
1775;SDS011;885;42.626;23.200;2023-06-14T03:11:24;9.90;;;5.87;;
1775;SDS011;885;42.626;23.200;2023-06-14T03:13:50;8.10;;;6.00;;
1775;SDS011;885;42.626;23.200;2023-06-14T03:16:17;6.63;;;5.93;;
1775;SDS011;885;42.626;23.200;2023-06-14T03:18:44;10.47;;;6.03;;
1775;SDS011;885;42.626;23.200;2023-06-14T03:21:11;11.20;;;5.13;;
1775;SDS011;885;42.626;23.200;2023-06-14T03:23:38;6.77;;;6.07;;
1775;SDS011;885;42.626;23.200;2023-06-14T03:26:05;6.40;;;5.70;;
1775;SDS011;885;42.626;23.200;2023-06-14T03:28:31;6.80;;;5.77;;
1775;SDS011;885;42.626;23.200;2023-06-14T03:30:58;7.23;;;6.20;;
1775;SDS011;885;42.626;23.200;2023-06-14T03:33:24;6.80;;;5.67;;
1775;SDS011;885;42.626;23.200;2023-06-14T03:35:51;6.93;;;5.90;;
1775;SDS011;885;42.626;23.200;2023-06-14T03:38:18;8.40;;;5.27;;
1775;SDS011;885;42.626;23.200;2023-06-14T03:40:46;6.60;;;5.90;;
1775;SDS011;885;42.626;23.200;2023-06-14T03:43:12;8.20;;;6.17;;
1775;SDS011;885;42.626;23.200;2023-06-14T03:45:39;9.20;;;7.30;;
1775;SDS011;885;42.626;23.200;2023-06-14T03:48:05;7.93;;;6.17;;
1775;SDS011;885;42.626;23.200;2023-06-14T03:50:33;9.07;;;7.57;;
1775;SDS011;885;42.626;23.200;2023-06-14T03:53:00;10.13;;;7.60;;
1775;SDS011;885;42.626;23.200;2023-06-14T03:55:27;10.23;;;8.23;;
1775;SDS011;885;42.626;23.200;2023-06-14T03:57:57;8.50;;;7.57;;
1775;SDS011;885;42.626;23.200;2023-06-14T04:00:24;9.60;;;8.33;;
1775;SDS011;885;42.626;23.200;2023-06-14T04:02:50;8.13;;;6.87;;
1775;SDS011;885;42.626;23.200;2023-06-14T04:05:17;11.47;;;7.50;;
1775;SDS011;885;42.626;23.200;2023-06-14T04:07:44;8.30;;;6.83;;
1775;SDS011;885;42.626;23.200;2023-06-14T04:10:11;7.23;;;6.30;;
1775;SDS011;885;42.626;23.200;2023-06-14T04:12:37;8.13;;;6.73;;
1775;SDS011;885;42.626;23.200;2023-06-14T04:15:06;8.20;;;7.20;;
1775;SDS011;885;42.626;23.200;2023-06-14T04:17:33;7.70;;;6.40;;
1775;SDS011;885;42.626;23.200;2023-06-14T04:19:59;7.63;;;6.17;;
1775;SDS011;885;42.626;23.200;2023-06-14T04:22:26;7.13;;;6.23;;
1775;SDS011;885;42.626;23.200;2023-06-14T04:24:54;7.03;;;6.20;;
1775;SDS011;885;42.626;23.200;2023-06-14T04:27:20;11.10;;;8.80;;
1775;SDS011;885;42.626;23.200;2023-06-14T04:29:50;9.30;;;6.73;;
1775;SDS011;885;42.626;23.200;2023-06-14T04:32:23;7.20;;;6.40;;
1775;SDS011;885;42.626;23.200;2023-06-14T04:34:50;9.20;;;5.93;;
1775;SDS011;885;42.626;23.200;2023-06-14T04:37:19;9.17;;;6.47;;
1775;SDS011;885;42.626;23.200;2023-06-14T04:39:46;8.13;;;7.13;;
1775;SDS011;885;42.626;23.200;2023-06-14T04:42:12;6.83;;;6.07;;
1775;SDS011;885;42.626;23.200;2023-06-14T04:44:40;7.53;;;6.70;;
1775;SDS011;885;42.626;23.200;2023-06-14T04:47:06;7.10;;;6.40;;
1775;SDS011;885;42.626;23.200;2023-06-14T04:49:34;7.07;;;6.13;;
1775;SDS011;885;42.626;23.200;2023-06-14T04:52:01;8.10;;;7.13;;
1775;SDS011;885;42.626;23.200;2023-06-14T04:54:27;7.40;;;6.60;;
1775;SDS011;885;42.626;23.200;2023-06-14T04:56:56;10.20;;;5.73;;
1775;SDS011;885;42.626;23.200;2023-06-14T04:59:23;9.03;;;7.00;;
1775;SDS011;885;42.626;23.200;2023-06-14T05:01:49;8.80;;;7.90;;
1775;SDS011;885;42.626;23.200;2023-06-14T05:04:16;7.73;;;7.03;;
1775;SDS011;885;42.626;23.200;2023-06-14T05:06:44;9.57;;;8.67;;
1775;SDS011;885;42.626;23.200;2023-06-14T05:09:13;11.83;;;9.90;;
1775;SDS011;885;42.626;23.200;2023-06-14T05:11:40;9.80;;;8.60;;
1775;SDS011;885;42.626;23.200;2023-06-14T05:14:07;11.60;;;8.90;;
1775;SDS011;885;42.626;23.200;2023-06-14T05:16:34;11.33;;;10.20;;
1775;SDS011;885;42.626;23.200;2023-06-14T05:19:00;11.43;;;9.43;;
1775;SDS011;885;42.626;23.200;2023-06-14T05:21:27;11.33;;;8.97;;
1775;SDS011;885;42.626;23.200;2023-06-14T05:23:55;11.70;;;10.50;;
1775;SDS011;885;42.626;23.200;2023-06-14T05:26:22;11.23;;;8.77;;
1775;SDS011;885;42.626;23.200;2023-06-14T05:28:53;14.00;;;10.53;;
1775;SDS011;885;42.626;23.200;2023-06-14T05:31:21;13.30;;;12.10;;
1775;SDS011;885;42.626;23.200;2023-06-14T05:33:48;8.90;;;8.00;;
1775;SDS011;885;42.626;23.200;2023-06-14T05:36:14;9.83;;;8.83;;
1775;SDS011;885;42.626;23.200;2023-06-14T05:38:41;8.70;;;8.00;;
1775;SDS011;885;42.626;23.200;2023-06-14T05:41:08;9.07;;;8.07;;
1775;SDS011;885;42.626;23.200;2023-06-14T05:43:35;9.83;;;8.60;;
1775;SDS011;885;42.626;23.200;2023-06-14T05:46:02;8.97;;;7.53;;
1775;SDS011;885;42.626;23.200;2023-06-14T05:48:28;10.50;;;9.20;;
1775;SDS011;885;42.626;23.200;2023-06-14T05:50:55;10.77;;;9.70;;
1775;SDS011;885;42.626;23.200;2023-06-14T05:53:21;9.23;;;8.33;;
1775;SDS011;885;42.626;23.200;2023-06-14T05:55:48;9.83;;;8.93;;
1775;SDS011;885;42.626;23.200;2023-06-14T05:58:16;10.30;;;9.30;;
1775;SDS011;885;42.626;23.200;2023-06-14T06:00:43;11.17;;;10.00;;
1775;SDS011;885;42.626;23.200;2023-06-14T06:03:09;11.40;;;10.20;;
1775;SDS011;885;42.626;23.200;2023-06-14T06:05:36;13.60;;;9.80;;
1775;SDS011;885;42.626;23.200;2023-06-14T06:08:02;12.17;;;9.70;;
1775;SDS011;885;42.626;23.200;2023-06-14T06:10:29;13.33;;;10.93;;
1775;SDS011;885;42.626;23.200;2023-06-14T06:12:56;14.60;;;12.33;;
1775;SDS011;885;42.626;23.200;2023-06-14T06:15:23;11.37;;;10.20;;
1775;SDS011;885;42.626;23.200;2023-06-14T06:17:50;13.33;;;11.87;;
1775;SDS011;885;42.626;23.200;2023-06-14T06:20:17;13.30;;;10.67;;
1775;SDS011;885;42.626;23.200;2023-06-14T06:22:43;21.00;;;14.80;;
1775;SDS011;885;42.626;23.200;2023-06-14T06:25:10;14.80;;;12.60;;
1775;SDS011;885;42.626;23.200;2023-06-14T06:27:37;21.13;;;13.60;;
1775;SDS011;885;42.626;23.200;2023-06-14T06:30:06;16.43;;;12.63;;
1775;SDS011;885;42.626;23.200;2023-06-14T06:32:34;8.93;;;8.03;;
1775;SDS011;885;42.626;23.200;2023-06-14T06:35:00;14.27;;;10.40;;
1775;SDS011;885;42.626;23.200;2023-06-14T06:37:26;10.60;;;9.40;;
1775;SDS011;885;42.626;23.200;2023-06-14T06:39:53;14.90;;;10.23;;
1775;SDS011;885;42.626;23.200;2023-06-14T06:42:20;9.77;;;8.77;;
1775;SDS011;885;42.626;23.200;2023-06-14T06:44:46;10.80;;;9.67;;
1775;SDS011;885;42.626;23.200;2023-06-14T06:47:13;12.20;;;10.90;;
1775;SDS011;885;42.626;23.200;2023-06-14T06:49:40;10.57;;;9.57;;
1775;SDS011;885;42.626;23.200;2023-06-14T06:52:07;11.73;;;10.20;;
1775;SDS011;885;42.626;23.200;2023-06-14T06:54:34;11.87;;;10.77;;
1775;SDS011;885;42.626;23.200;2023-06-14T06:57:00;11.00;;;9.83;;
1775;SDS011;885;42.626;23.200;2023-06-14T06:59:27;10.87;;;9.83;;
1775;SDS011;885;42.626;23.200;2023-06-14T07:01:53;10.80;;;9.77;;
1775;SDS011;885;42.626;23.200;2023-06-14T07:04:20;10.00;;;9.00;;
1775;SDS011;885;42.626;23.200;2023-06-14T07:06:48;11.73;;;10.50;;
1775;SDS011;885;42.626;23.200;2023-06-14T07:09:14;12.70;;;11.30;;
1775;SDS011;885;42.626;23.200;2023-06-14T07:11:43;13.33;;;11.80;;
1775;SDS011;885;42.626;23.200;2023-06-14T07:14:09;12.43;;;11.13;;
1775;SDS011;885;42.626;23.200;2023-06-14T07:16:36;13.43;;;12.07;;
1775;SDS011;885;42.626;23.200;2023-06-14T07:19:03;12.47;;;11.17;;
1775;SDS011;885;42.626;23.200;2023-06-14T07:21:29;14.10;;;12.60;;
1775;SDS011;885;42.626;23.200;2023-06-14T07:23:57;12.77;;;10.80;;
1775;SDS011;885;42.626;23.200;2023-06-14T07:26:24;11.83;;;10.73;;
1775;SDS011;885;42.626;23.200;2023-06-14T07:28:51;13.10;;;11.80;;
1775;SDS011;885;42.626;23.200;2023-06-14T07:31:18;16.80;;;13.00;;
1775;SDS011;885;42.626;23.200;2023-06-14T07:33:44;13.60;;;12.20;;
1775;SDS011;885;42.626;23.200;2023-06-14T07:36:11;11.30;;;10.20;;
1775;SDS011;885;42.626;23.200;2023-06-14T07:38:37;11.80;;;10.10;;
1775;SDS011;885;42.626;23.200;2023-06-14T07:41:06;12.50;;;10.30;;
1775;SDS011;885;42.626;23.200;2023-06-14T07:43:33;11.57;;;10.37;;
1775;SDS011;885;42.626;23.200;2023-06-14T07:46:00;11.40;;;10.20;;
1775;SDS011;885;42.626;23.200;2023-06-14T07:48:27;11.77;;;10.50;;
1775;SDS011;885;42.626;23.200;2023-06-14T07:50:53;11.87;;;10.13;;
1775;SDS011;885;42.626;23.200;2023-06-14T07:53:20;11.70;;;10.50;;
1775;SDS011;885;42.626;23.200;2023-06-14T07:55:46;11.50;;;10.30;;
1775;SDS011;885;42.626;23.200;2023-06-14T07:58:15;14.73;;;11.40;;
1775;SDS011;885;42.626;23.200;2023-06-14T08:00:41;14.03;;;12.30;;
1775;SDS011;885;42.626;23.200;2023-06-14T08:03:08;11.87;;;10.70;;
1775;SDS011;885;42.626;23.200;2023-06-14T08:05:34;12.70;;;11.33;;
1775;SDS011;885;42.626;23.200;2023-06-14T08:08:01;11.60;;;10.43;;
1775;SDS011;885;42.626;23.200;2023-06-14T08:10:27;12.10;;;10.87;;
1775;SDS011;885;42.626;23.200;2023-06-14T08:12:54;12.03;;;10.77;;
1775;SDS011;885;42.626;23.200;2023-06-14T08:15:22;11.70;;;10.50;;
1775;SDS011;885;42.626;23.200;2023-06-14T08:17:48;10.30;;;9.17;;
1775;SDS011;885;42.626;23.200;2023-06-14T08:20:15;12.60;;;10.77;;
1775;SDS011;885;42.626;23.200;2023-06-14T08:22:42;13.27;;;10.00;;
1775;SDS011;885;42.626;23.200;2023-06-14T08:25:08;11.60;;;10.47;;
1775;SDS011;885;42.626;23.200;2023-06-14T08:27:36;12.17;;;10.90;;
1775;SDS011;885;42.626;23.200;2023-06-14T08:30:03;10.83;;;9.77;;
1775;SDS011;885;42.626;23.200;2023-06-14T08:32:31;9.80;;;8.83;;
1775;SDS011;885;42.626;23.200;2023-06-14T08:34:58;12.13;;;10.07;;
1775;SDS011;885;42.626;23.200;2023-06-14T08:37:24;9.90;;;9.00;;
1775;SDS011;885;42.626;23.200;2023-06-14T08:39:52;12.47;;;11.10;;
1775;SDS011;885;42.626;23.200;2023-06-14T08:42:18;12.93;;;11.60;;
1775;SDS011;885;42.626;23.200;2023-06-14T08:44:47;12.57;;;11.27;;
1775;SDS011;885;42.626;23.200;2023-06-14T08:47:14;12.27;;;11.07;;
1775;SDS011;885;42.626;23.200;2023-06-14T08:49:45;10.67;;;9.67;;
1775;SDS011;885;42.626;23.200;2023-06-14T08:52:24;11.27;;;9.73;;
1775;SDS011;885;42.626;23.200;2023-06-14T08:54:58;11.27;;;10.07;;
1775;SDS011;885;42.626;23.200;2023-06-14T08:57:27;15.37;;;11.07;;
1775;SDS011;885;42.626;23.200;2023-06-14T08:59:55;12.03;;;10.83;;
1775;SDS011;885;42.626;23.200;2023-06-14T09:02:22;17.33;;;11.33;;
1775;SDS011;885;42.626;23.200;2023-06-14T09:04:51;13.40;;;11.90;;
1775;SDS011;885;42.626;23.200;2023-06-14T09:07:19;13.83;;;11.07;;
1775;SDS011;885;42.626;23.200;2023-06-14T09:09:48;14.57;;;12.90;;
1775;SDS011;885;42.626;23.200;2023-06-14T09:12:14;11.90;;;10.80;;
1775;SDS011;885;42.626;23.200;2023-06-14T09:14:41;12.03;;;10.50;;
1775;SDS011;885;42.626;23.200;2023-06-14T09:17:07;12.90;;;10.57;;
1775;SDS011;885;42.626;23.200;2023-06-14T09:19:34;11.23;;;9.50;;
1775;SDS011;885;42.626;23.200;2023-06-14T09:22:02;12.00;;;10.50;;
1775;SDS011;885;42.626;23.200;2023-06-14T09:24:29;10.30;;;9.20;;
1775;SDS011;885;42.626;23.200;2023-06-14T09:26:55;10.90;;;9.67;;
1775;SDS011;885;42.626;23.200;2023-06-14T09:29:22;9.53;;;8.63;;
1775;SDS011;885;42.626;23.200;2023-06-14T09:31:49;9.70;;;8.80;;
1775;SDS011;885;42.626;23.200;2023-06-14T09:34:15;10.40;;;9.40;;
1775;SDS011;885;42.626;23.200;2023-06-14T09:36:43;14.43;;;11.63;;
1775;SDS011;885;42.626;23.200;2023-06-14T09:39:11;11.33;;;10.27;;
1775;SDS011;885;42.626;23.200;2023-06-14T09:41:43;13.50;;;10.30;;
1775;SDS011;885;42.626;23.200;2023-06-14T09:44:10;12.70;;;9.70;;
1775;SDS011;885;42.626;23.200;2023-06-14T09:46:37;9.90;;;8.90;;
1775;SDS011;885;42.626;23.200;2023-06-14T09:49:04;10.97;;;9.87;;
1775;SDS011;885;42.626;23.200;2023-06-14T09:51:30;11.23;;;9.70;;
1775;SDS011;885;42.626;23.200;2023-06-14T09:53:58;12.80;;;8.83;;
1775;SDS011;885;42.626;23.200;2023-06-14T09:56:28;9.93;;;8.97;;
1775;SDS011;885;42.626;23.200;2023-06-14T09:58:55;10.77;;;9.70;;
1775;SDS011;885;42.626;23.200;2023-06-14T10:01:22;10.57;;;9.57;;
1775;SDS011;885;42.626;23.200;2023-06-14T10:03:50;10.90;;;9.80;;
1775;SDS011;885;42.626;23.200;2023-06-14T10:06:17;11.83;;;10.63;;
1775;SDS011;885;42.626;23.200;2023-06-14T10:08:43;10.87;;;9.77;;
1775;SDS011;885;42.626;23.200;2023-06-14T10:11:11;13.10;;;11.53;;
1775;SDS011;885;42.626;23.200;2023-06-14T10:13:40;10.50;;;9.40;;
1775;SDS011;885;42.626;23.200;2023-06-14T10:16:08;11.23;;;10.23;;
1775;SDS011;885;42.626;23.200;2023-06-14T10:18:40;11.13;;;10.10;;
1775;SDS011;885;42.626;23.200;2023-06-14T10:21:08;13.83;;;12.50;;
1775;SDS011;885;42.626;23.200;2023-06-14T10:23:40;14.43;;;10.50;;
1775;SDS011;885;42.626;23.200;2023-06-14T10:26:08;11.27;;;10.13;;
1775;SDS011;885;42.626;23.200;2023-06-14T10:28:37;11.20;;;10.20;;
1775;SDS011;885;42.626;23.200;2023-06-14T10:31:05;13.77;;;9.53;;
1775;SDS011;885;42.626;23.200;2023-06-14T10:33:32;11.70;;;10.50;;
1775;SDS011;885;42.626;23.200;2023-06-14T10:36:09;10.57;;;9.67;;
1775;SDS011;885;42.626;23.200;2023-06-14T10:38:36;13.10;;;9.83;;
1775;SDS011;885;42.626;23.200;2023-06-14T10:41:03;11.40;;;9.50;;
1775;SDS011;885;42.626;23.200;2023-06-14T10:43:30;12.97;;;10.40;;
1775;SDS011;885;42.626;23.200;2023-06-14T10:46:16;11.63;;;10.53;;
1775;SDS011;885;42.626;23.200;2023-06-14T10:48:43;12.50;;;11.20;;
1775;SDS011;885;42.626;23.200;2023-06-14T10:51:16;14.40;;;13.00;;
1775;SDS011;885;42.626;23.200;2023-06-14T10:53:45;12.90;;;11.67;;
1775;SDS011;885;42.626;23.200;2023-06-14T10:56:22;16.87;;;13.73;;
1775;SDS011;885;42.626;23.200;2023-06-14T10:58:50;13.00;;;11.60;;
1775;SDS011;885;42.626;23.200;2023-06-14T11:01:19;14.03;;;12.57;;
1775;SDS011;885;42.626;23.200;2023-06-14T11:03:50;12.70;;;11.30;;
1775;SDS011;885;42.626;23.200;2023-06-14T11:06:19;13.77;;;12.30;;
1775;SDS011;885;42.626;23.200;2023-06-14T11:08:56;11.87;;;10.67;;
1775;SDS011;885;42.626;23.200;2023-06-14T11:11:31;12.73;;;10.50;;
1775;SDS011;885;42.626;23.200;2023-06-14T11:13:59;14.23;;;11.00;;
1775;SDS011;885;42.626;23.200;2023-06-14T11:16:27;11.90;;;10.60;;
1775;SDS011;885;42.626;23.200;2023-06-14T11:18:54;13.33;;;12.00;;
1775;SDS011;885;42.626;23.200;2023-06-14T11:21:21;13.17;;;11.83;;
1775;SDS011;885;42.626;23.200;2023-06-14T11:23:50;12.40;;;11.17;;
1775;SDS011;885;42.626;23.200;2023-06-14T11:26:24;13.53;;;12.33;;
1775;SDS011;885;42.626;23.200;2023-06-14T11:28:54;14.13;;;11.50;;
1775;SDS011;885;42.626;23.200;2023-06-14T11:31:20;11.70;;;10.17;;
1775;SDS011;885;42.626;23.200;2023-06-14T11:33:50;10.13;;;9.03;;
1775;SDS011;885;42.626;23.200;2023-06-14T11:36:17;11.27;;;10.17;;
1775;SDS011;885;42.626;23.200;2023-06-14T11:38:43;12.40;;;11.10;;
1775;SDS011;885;42.626;23.200;2023-06-14T11:41:10;10.10;;;9.10;;
1775;SDS011;885;42.626;23.200;2023-06-14T11:43:36;10.50;;;9.50;;
1775;SDS011;885;42.626;23.200;2023-06-14T11:46:02;10.13;;;9.03;;
1775;SDS011;885;42.626;23.200;2023-06-14T11:48:40;11.07;;;9.97;;
1775;SDS011;885;42.626;23.200;2023-06-14T11:51:09;11.37;;;10.03;;
1775;SDS011;885;42.626;23.200;2023-06-14T11:53:36;13.07;;;11.70;;
1775;SDS011;885;42.626;23.200;2023-06-14T11:56:02;13.60;;;11.30;;
1775;SDS011;885;42.626;23.200;2023-06-14T11:58:29;12.90;;;11.00;;
1775;SDS011;885;42.626;23.200;2023-06-14T12:00:56;11.80;;;10.60;;
1775;SDS011;885;42.626;23.200;2023-06-14T12:03:23;10.20;;;9.30;;
1775;SDS011;885;42.626;23.200;2023-06-14T12:05:50;10.03;;;9.03;;
1775;SDS011;885;42.626;23.200;2023-06-14T12:08:18;9.10;;;8.30;;
1775;SDS011;885;42.626;23.200;2023-06-14T12:10:46;10.07;;;8.83;;
1775;SDS011;885;42.626;23.200;2023-06-14T12:13:12;28.60;;;19.53;;
1775;SDS011;885;42.626;23.200;2023-06-14T12:15:39;13.83;;;12.43;;
1775;SDS011;885;42.626;23.200;2023-06-14T12:18:06;8.70;;;7.90;;
1775;SDS011;885;42.626;23.200;2023-06-14T12:20:33;11.00;;;9.80;;
1775;SDS011;885;42.626;23.200;2023-06-14T12:23:02;11.03;;;10.13;;
1775;SDS011;885;42.626;23.200;2023-06-14T12:25:31;12.77;;;10.23;;
1775;SDS011;885;42.626;23.200;2023-06-14T12:27:59;11.60;;;10.00;;
1775;SDS011;885;42.626;23.200;2023-06-14T12:30:27;8.90;;;8.10;;
1775;SDS011;885;42.626;23.200;2023-06-14T12:32:53;12.10;;;10.93;;
1775;SDS011;885;42.626;23.200;2023-06-14T12:35:20;11.17;;;9.77;;
1775;SDS011;885;42.626;23.200;2023-06-14T12:37:46;9.80;;;8.00;;
1775;SDS011;885;42.626;23.200;2023-06-14T12:40:13;9.17;;;8.37;;
1775;SDS011;885;42.626;23.200;2023-06-14T12:42:41;10.30;;;9.10;;
1775;SDS011;885;42.626;23.200;2023-06-14T12:45:08;13.50;;;10.10;;
1775;SDS011;885;42.626;23.200;2023-06-14T12:47:35;11.70;;;8.37;;
1775;SDS011;885;42.626;23.200;2023-06-14T12:50:02;9.97;;;9.17;;
1775;SDS011;885;42.626;23.200;2023-06-14T12:52:28;9.90;;;9.00;;
1775;SDS011;885;42.626;23.200;2023-06-14T12:54:55;9.50;;;8.60;;
1775;SDS011;885;42.626;23.200;2023-06-14T12:57:22;8.33;;;7.63;;
1775;SDS011;885;42.626;23.200;2023-06-14T12:59:50;8.90;;;8.10;;
1775;SDS011;885;42.626;23.200;2023-06-14T13:02:17;9.10;;;8.20;;
1775;SDS011;885;42.626;23.200;2023-06-14T13:04:45;10.57;;;9.47;;
1775;SDS011;885;42.626;23.200;2023-06-14T13:07:12;8.57;;;7.77;;
1775;SDS011;885;42.626;23.200;2023-06-14T13:09:40;9.37;;;8.30;;
1775;SDS011;885;42.626;23.200;2023-06-14T13:12:07;8.73;;;7.93;;
1775;SDS011;885;42.626;23.200;2023-06-14T13:14:33;9.00;;;7.80;;
1775;SDS011;885;42.626;23.200;2023-06-14T13:17:01;8.63;;;7.83;;
1775;SDS011;885;42.626;23.200;2023-06-14T13:19:28;8.40;;;7.60;;
1775;SDS011;885;42.626;23.200;2023-06-14T13:21:55;9.00;;;8.10;;
1775;SDS011;885;42.626;23.200;2023-06-14T13:24:21;8.90;;;7.80;;
1775;SDS011;885;42.626;23.200;2023-06-14T13:26:48;8.30;;;7.60;;
1775;SDS011;885;42.626;23.200;2023-06-14T13:29:14;9.17;;;8.37;;
1775;SDS011;885;42.626;23.200;2023-06-14T13:31:41;10.33;;;8.83;;
1775;SDS011;885;42.626;23.200;2023-06-14T13:34:09;11.90;;;9.67;;
1775;SDS011;885;42.626;23.200;2023-06-14T13:36:35;11.70;;;9.70;;
1775;SDS011;885;42.626;23.200;2023-06-14T13:39:02;11.77;;;9.97;;
1775;SDS011;885;42.626;23.200;2023-06-14T13:41:29;17.23;;;10.40;;
1775;SDS011;885;42.626;23.200;2023-06-14T13:43:57;12.30;;;8.40;;
1775;SDS011;885;42.626;23.200;2023-06-14T13:46:24;18.33;;;10.30;;
1775;SDS011;885;42.626;23.200;2023-06-14T13:48:51;13.67;;;11.50;;
1775;SDS011;885;42.626;23.200;2023-06-14T13:51:19;13.37;;;12.07;;
1775;SDS011;885;42.626;23.200;2023-06-14T13:53:45;51.57;;;12.43;;
1775;SDS011;885;42.626;23.200;2023-06-14T13:56:12;12.70;;;9.73;;
1775;SDS011;885;42.626;23.200;2023-06-14T13:58:39;15.67;;;11.10;;
1775;SDS011;885;42.626;23.200;2023-06-14T14:01:05;11.67;;;10.57;;
1775;SDS011;885;42.626;23.200;2023-06-14T14:03:32;10.43;;;9.43;;
1775;SDS011;885;42.626;23.200;2023-06-14T14:06:00;12.00;;;10.03;;
1775;SDS011;885;42.626;23.200;2023-06-14T14:08:28;11.37;;;10.13;;
1775;SDS011;885;42.626;23.200;2023-06-14T14:10:54;9.63;;;8.60;;
1775;SDS011;885;42.626;23.200;2023-06-14T14:13:21;10.80;;;9.70;;
1775;SDS011;885;42.626;23.200;2023-06-14T14:15:47;11.63;;;10.40;;
1775;SDS011;885;42.626;23.200;2023-06-14T14:18:14;16.40;;;10.90;;
1775;SDS011;885;42.626;23.200;2023-06-14T14:20:41;15.63;;;12.50;;
1775;SDS011;885;42.626;23.200;2023-06-14T14:23:07;16.00;;;11.30;;
1775;SDS011;885;42.626;23.200;2023-06-14T14:25:35;15.93;;;12.47;;
1775;SDS011;885;42.626;23.200;2023-06-14T14:28:02;13.67;;;12.20;;
1775;SDS011;885;42.626;23.200;2023-06-14T14:30:28;13.77;;;12.13;;
1775;SDS011;885;42.626;23.200;2023-06-14T14:32:55;13.57;;;11.00;;
1775;SDS011;885;42.626;23.200;2023-06-14T14:35:21;11.90;;;10.40;;
1775;SDS011;885;42.626;23.200;2023-06-14T14:37:49;11.60;;;10.40;;
1775;SDS011;885;42.626;23.200;2023-06-14T14:40:16;12.20;;;10.50;;
1775;SDS011;885;42.626;23.200;2023-06-14T14:42:44;10.20;;;9.20;;
1775;SDS011;885;42.626;23.200;2023-06-14T14:45:12;9.00;;;8.20;;
1775;SDS011;885;42.626;23.200;2023-06-14T14:47:38;9.17;;;8.27;;
1775;SDS011;885;42.626;23.200;2023-06-14T14:50:05;8.80;;;8.00;;
1775;SDS011;885;42.626;23.200;2023-06-14T14:52:33;9.00;;;8.20;;
1775;SDS011;885;42.626;23.200;2023-06-14T14:55:00;8.97;;;7.30;;
1775;SDS011;885;42.626;23.200;2023-06-14T14:57:27;7.90;;;7.10;;
1775;SDS011;885;42.626;23.200;2023-06-14T14:59:56;7.37;;;6.57;;
1775;SDS011;885;42.626;23.200;2023-06-14T15:02:22;7.23;;;6.53;;
1775;SDS011;885;42.626;23.200;2023-06-14T15:04:49;8.57;;;7.67;;